createdAt,value
2015-03-21T13:13:36.299Z,95273
2015-03-21T15:45:53.291Z,95251
2015-03-21T15:46:11.760Z,95252
2015-03-21T15:46:30.151Z,95251
2015-03-21T15:46:48.823Z,95250
2015-03-21T15:47:07.263Z,95247
2015-03-21T15:47:25.654Z,95249
2015-03-21T15:47:44.091Z,95248
2015-03-21T15:48:02.671Z,95248
2015-03-21T15:48:21.093Z,95242
2015-03-21T15:48:39.671Z,95250
2015-03-21T15:48:58.234Z,95267
2015-03-21T15:49:16.893Z,95246
2015-03-21T15:49:35.424Z,95254
2015-03-21T15:49:53.831Z,95254
2015-03-21T15:50:12.334Z,95247
2015-03-21T15:50:30.896Z,95250
2015-03-21T15:50:49.302Z,95255
2015-03-21T15:51:07.677Z,95249
2015-03-21T15:51:26.366Z,95256
2015-03-21T15:51:44.788Z,95247
2015-03-21T15:52:03.272Z,95258
2015-03-21T15:52:22.056Z,95243
2015-03-21T15:52:40.541Z,95257
2015-03-21T15:52:58.963Z,95251
2015-03-21T15:53:17.338Z,95259
2015-03-21T15:53:35.716Z,95252
2015-03-21T15:53:54.122Z,95252
2015-03-21T15:54:12.497Z,95257
2015-03-21T15:54:30.983Z,95263
2015-03-21T15:54:49.389Z,95265
2015-03-21T15:55:07.796Z,95259
2015-03-21T15:55:26.280Z,95253
2015-03-21T15:55:44.799Z,95256
2015-03-21T15:56:03.392Z,95247
2015-03-21T15:56:21.846Z,95258
2015-03-21T15:56:40.255Z,95260
2015-03-21T15:56:58.724Z,95257
2015-03-21T15:57:17.099Z,95257
2015-03-21T15:57:35.599Z,95254
2015-03-21T15:57:53.991Z,95262
2015-03-21T15:58:12.663Z,95254
2015-03-21T15:58:31.257Z,95251
2015-03-21T15:58:49.759Z,95256
2015-03-21T15:59:08.165Z,95256
2015-03-21T15:59:26.556Z,95259
2015-03-21T15:59:45.196Z,95256
2015-03-21T16:00:03.684Z,95259
2015-03-21T16:00:22.121Z,95261
2015-03-21T16:00:40.496Z,95261
2015-03-21T16:00:58.904Z,95270
2015-03-21T16:01:17.576Z,95261
2015-03-21T16:01:35.826Z,95264
2015-03-21T16:01:54.233Z,95261
2015-03-21T16:02:12.641Z,95264
2015-03-21T16:02:31.219Z,95264
2015-03-21T16:02:49.719Z,95264
2015-03-21T16:03:08.316Z,95267
2015-03-21T16:03:26.972Z,95267
2015-03-21T16:03:45.456Z,95259
2015-03-21T16:04:03.974Z,95262
2015-03-21T16:04:22.396Z,95267
2015-03-21T16:04:40.786Z,95267
2015-03-21T16:04:59.177Z,95265
2015-03-21T16:05:17.539Z,95259
2015-03-21T16:05:35.961Z,95273
2015-03-21T16:05:54.336Z,95259
2015-03-21T16:06:12.868Z,95262
2015-03-21T16:06:31.338Z,95265
2015-03-21T16:06:49.729Z,95265
2015-03-21T16:07:08.104Z,95268
2015-03-21T16:07:26.498Z,95272
2015-03-21T16:07:44.888Z,95278
2015-03-21T16:08:03.310Z,95272
2015-03-21T16:08:21.748Z,95272
2015-03-21T16:08:40.125Z,95272
2015-03-21T16:08:58.656Z,95270
2015-03-21T16:09:17.078Z,95273
2015-03-21T16:09:35.471Z,95278
2015-03-21T16:09:53.893Z,95273
2015-03-21T16:10:12.378Z,95281
2015-03-21T16:10:30.831Z,95279
2015-03-21T16:10:49.192Z,95284
2015-03-21T16:11:07.567Z,95287
2015-03-21T16:11:25.942Z,95281
2015-03-21T16:11:44.336Z,95284
2015-03-21T16:12:02.773Z,95276
2015-03-21T16:12:21.258Z,95270
2015-03-21T16:12:39.648Z,95282
2015-03-21T16:12:58.151Z,95282
2015-03-21T16:13:16.792Z,95285
2015-03-21T16:13:35.526Z,95285
2015-03-21T16:13:54.029Z,95288
2015-03-21T16:14:12.576Z,95282
2015-03-21T16:14:30.967Z,95293
2015-03-21T16:14:49.357Z,95291
2015-03-21T16:15:07.718Z,95291
2015-03-21T16:15:26.108Z,95286
2015-03-21T16:15:44.561Z,95294
2015-03-21T16:16:02.955Z,95292
2015-03-21T16:16:21.408Z,95287
2015-03-21T16:16:39.814Z,95289
2015-03-21T16:16:58.189Z,95294
2015-03-21T16:17:16.989Z,95290
2015-03-21T16:17:35.567Z,95295
2015-03-21T16:17:53.958Z,95287
2015-03-21T16:18:12.366Z,95290
2015-03-21T16:18:30.944Z,95301
2015-03-21T16:18:49.413Z,95293
2015-03-21T16:19:07.804Z,95296
2015-03-21T16:19:26.432Z,95289
2015-03-21T16:19:45.057Z,95302
2015-03-21T16:20:03.557Z,95290
2015-03-21T16:20:21.949Z,95297
2015-03-21T16:20:40.309Z,95306
2015-03-21T16:20:58.731Z,95309
2015-03-21T16:21:17.121Z,95301
2015-03-21T16:21:35.576Z,95304
2015-03-21T16:21:54.405Z,95304
2015-03-21T16:22:12.811Z,95309
2015-03-21T16:22:31.251Z,95307
2015-03-21T16:22:49.673Z,95307
2015-03-21T16:23:08.251Z,95307
2015-03-21T16:23:26.673Z,95307
2015-03-21T16:23:45.411Z,95313
2015-03-21T16:24:03.832Z,95308
2015-03-21T16:24:22.270Z,95305
2015-03-21T16:24:40.725Z,95311
2015-03-21T16:24:59.116Z,95311
2015-03-21T16:25:17.663Z,95314
2015-03-21T16:25:36.428Z,95317
2015-03-21T16:25:55.118Z,95303
2015-03-21T16:26:13.555Z,95301
2015-03-21T16:26:32.102Z,95307
2015-03-21T16:26:50.496Z,95310
2015-03-21T16:27:09.074Z,95307
2015-03-21T16:27:27.605Z,95319
2015-03-21T16:27:45.964Z,95311
2015-03-21T16:28:04.342Z,95314
2015-03-21T16:28:22.999Z,95320
2015-03-21T16:28:41.452Z,95312
2015-03-21T16:28:59.876Z,95312
2015-03-21T16:29:18.266Z,95321
2015-03-21T16:29:36.673Z,95309
2015-03-21T16:29:55.141Z,95312
2015-03-21T16:30:13.581Z,95318
2015-03-21T16:30:31.956Z,95313
2015-03-21T16:30:50.518Z,95310
2015-03-21T16:31:08.974Z,95319
2015-03-21T16:31:27.365Z,95311
2015-03-21T16:31:45.756Z,95314
2015-03-21T16:32:04.271Z,95314
2015-03-21T16:32:22.726Z,95311
2015-03-21T16:32:41.289Z,95300
2015-03-21T16:32:59.695Z,95312
2015-03-21T16:33:18.151Z,95312
2015-03-21T16:33:36.886Z,95306
2015-03-21T16:33:55.261Z,95309
2015-03-21T16:34:13.698Z,95315
2015-03-21T16:34:32.107Z,95307
2015-03-21T16:34:50.529Z,95315
2015-03-21T16:35:09.154Z,95313
2015-03-21T16:35:27.687Z,95321
2015-03-21T16:35:46.312Z,95318
2015-03-21T16:36:04.687Z,95318
2015-03-21T16:36:23.062Z,95313
2015-03-21T16:36:41.519Z,95324
2015-03-21T16:36:59.987Z,95315
2015-03-21T16:37:18.753Z,95315
2015-03-21T16:37:37.135Z,95318
2015-03-21T16:37:55.948Z,95324
2015-03-21T16:38:14.557Z,95321
2015-03-21T16:38:33.056Z,95327
2015-03-21T16:38:51.447Z,95316
2015-03-21T16:39:09.853Z,95313
2015-03-21T16:39:28.213Z,95327
2015-03-21T16:39:46.664Z,95313
2015-03-21T16:40:05.242Z,95316
2015-03-21T16:40:23.648Z,95313
2015-03-21T16:40:42.102Z,95313
2015-03-21T16:41:00.696Z,95316
2015-03-21T16:41:19.071Z,95313
2015-03-21T16:41:37.446Z,95318
2015-03-21T16:41:55.883Z,95313
2015-03-21T16:42:14.273Z,95313
2015-03-21T16:42:32.742Z,95321
2015-03-21T16:42:51.159Z,95313
2015-03-21T16:43:09.659Z,95315
2015-03-21T16:43:28.269Z,95321
2015-03-21T16:43:46.666Z,95315
2015-03-21T16:44:05.041Z,95307
2015-03-21T16:44:23.447Z,95310
2015-03-21T16:44:41.885Z,95319
2015-03-21T16:45:00.345Z,95321
2015-03-21T16:45:18.829Z,95313
2015-03-21T16:45:37.220Z,95310
2015-03-21T16:45:55.946Z,95310
2015-03-21T16:46:14.446Z,95319
2015-03-21T16:46:32.946Z,95311
2015-03-21T16:46:51.430Z,95319
2015-03-21T16:47:09.813Z,95316
2015-03-21T16:47:28.298Z,95311
2015-03-21T16:47:46.907Z,95314
2015-03-21T16:48:05.287Z,95305
2015-03-21T16:48:23.771Z,95311
2015-03-21T16:48:42.287Z,95316
2015-03-21T16:49:00.849Z,95314
2015-03-21T16:49:19.227Z,95311
2015-03-21T16:49:37.727Z,95311
2015-03-21T16:49:56.181Z,95316
2015-03-21T16:50:14.717Z,95322
2015-03-21T16:50:33.154Z,95328
2015-03-21T16:50:51.717Z,95316
2015-03-21T16:51:10.311Z,95319
2015-03-21T16:51:28.908Z,95334
2015-03-21T16:51:47.455Z,95316
2015-03-21T16:52:05.830Z,95322
2015-03-21T16:52:24.428Z,95322
2015-03-21T16:52:42.834Z,95314
2015-03-21T16:53:01.319Z,95325
2015-03-21T16:53:19.944Z,95320
2015-03-21T16:53:38.665Z,95320
2015-03-21T16:53:57.368Z,95332
2015-03-21T16:54:16.118Z,95327
2015-03-21T16:54:34.496Z,95327
2015-03-21T16:54:53.168Z,95327
2015-03-21T16:55:11.606Z,95316
2015-03-21T16:55:29.965Z,95322
2015-03-21T16:55:48.593Z,95314
2015-03-21T16:56:06.578Z,95326
2015-03-21T16:56:25.015Z,95326
2015-03-21T16:56:43.659Z,95314
2015-03-21T16:57:02.252Z,95332
2015-03-21T16:57:20.846Z,95326
2015-03-21T16:57:39.252Z,95323
2015-03-21T16:57:58.020Z,95329
2015-03-21T16:58:16.911Z,95329
2015-03-21T16:58:35.520Z,95326
2015-03-21T16:58:53.929Z,95315
2015-03-21T16:59:12.304Z,95323
2015-03-21T16:59:30.804Z,95318
2015-03-21T16:59:49.198Z,95326
2015-03-21T17:00:07.573Z,95318
2015-03-21T17:00:25.964Z,95318
2015-03-21T17:00:44.495Z,95332
2015-03-21T17:01:03.138Z,95318
2015-03-21T17:01:21.607Z,95324
2015-03-21T17:01:40.107Z,95321
2015-03-21T17:01:58.532Z,95327
2015-03-21T17:02:16.985Z,95324
2015-03-21T17:02:35.470Z,95319
2015-03-21T17:02:54.220Z,95328
2015-03-21T17:03:12.675Z,95316
2015-03-21T17:03:31.331Z,95334
2015-03-21T17:03:49.925Z,95331
2015-03-21T17:04:08.803Z,95325
2015-03-21T17:04:27.537Z,95328
2015-03-21T17:04:45.943Z,95334
2015-03-21T17:05:04.443Z,95328
2015-03-21T17:05:22.883Z,95328
2015-03-21T17:05:41.289Z,95337
2015-03-21T17:06:00.008Z,95325
2015-03-21T17:06:18.448Z,95331
2015-03-21T17:06:37.245Z,95336
2015-03-21T17:06:55.870Z,95331
2015-03-21T17:07:14.794Z,95342
2015-03-21T17:07:33.278Z,95325
2015-03-21T17:07:51.778Z,95322
2015-03-21T17:08:10.296Z,95325
2015-03-21T17:08:28.905Z,95331
2015-03-21T17:08:47.484Z,95331
2015-03-21T17:09:06.062Z,95337
2015-03-21T17:09:24.565Z,95334
2015-03-21T17:09:43.143Z,95331
2015-03-21T17:10:01.658Z,95328
2015-03-21T17:10:20.082Z,95328
2015-03-21T17:10:38.660Z,95331
2015-03-21T17:10:57.207Z,95328
2015-03-21T17:11:15.801Z,95328
2015-03-21T17:11:34.381Z,95331
2015-03-21T17:11:52.803Z,95325
2015-03-21T17:12:11.319Z,95331
2015-03-21T17:12:29.790Z,95331
2015-03-21T17:12:48.150Z,95331
2015-03-21T17:13:06.744Z,95328
2015-03-21T17:13:25.259Z,95325
2015-03-21T17:13:43.730Z,95334
2015-03-21T17:14:02.183Z,95334
2015-03-21T17:14:20.621Z,95331
2015-03-21T17:14:39.202Z,95325
2015-03-21T17:14:57.717Z,95322
2015-03-21T17:15:16.624Z,95331
2015-03-21T17:15:35.204Z,95330
2015-03-21T17:15:53.797Z,95325
2015-03-21T17:16:12.282Z,95336
2015-03-21T17:16:31.313Z,95333
2015-03-21T17:16:49.988Z,95336
2015-03-21T17:17:08.472Z,95341
2015-03-21T17:17:26.347Z,95344
2015-03-21T17:17:44.834Z,95324
2015-03-21T17:18:03.224Z,95333
2015-03-21T17:18:22.021Z,95333
2015-03-21T17:18:40.789Z,95333
2015-03-21T17:18:59.679Z,95330
2015-03-21T17:19:18.117Z,95332
2015-03-21T17:19:37.101Z,95338
2015-03-21T17:19:56.011Z,95327
2015-03-21T17:20:14.682Z,95330
2015-03-21T17:20:33.073Z,95329
2015-03-21T17:20:51.794Z,95332
2015-03-21T17:21:10.325Z,95335
2015-03-21T17:21:28.731Z,95335
2015-03-21T17:21:47.419Z,95332
2015-03-21T17:22:05.922Z,95335
2015-03-21T17:22:24.344Z,95340
2015-03-21T17:22:42.891Z,95335
2015-03-21T17:23:01.862Z,95335
2015-03-21T17:23:20.487Z,95340
2015-03-21T17:23:39.112Z,95343
2015-03-21T17:23:57.849Z,95346
2015-03-21T17:24:16.536Z,95340
2015-03-21T17:24:34.974Z,95351
2015-03-21T17:24:53.803Z,95346
2015-03-21T17:25:12.225Z,95346
2015-03-21T17:25:30.631Z,95349
2015-03-21T17:25:49.303Z,95349
2015-03-21T17:26:08.165Z,95337
2015-03-21T17:26:26.743Z,95343
2015-03-21T17:26:45.165Z,95343
2015-03-21T17:27:03.684Z,95355
2015-03-21T17:27:22.278Z,95352
2015-03-21T17:27:40.731Z,95346
2015-03-21T17:27:59.670Z,95352
2015-03-21T17:28:18.420Z,95349
2015-03-21T17:28:37.061Z,95338
2015-03-21T17:28:55.748Z,95343
2015-03-21T17:29:14.282Z,95349
2015-03-21T17:29:32.875Z,95352
2015-03-21T17:29:51.438Z,95352
2015-03-21T17:30:10.425Z,95361
2015-03-21T17:30:28.847Z,95344
2015-03-21T17:30:47.441Z,95350
2015-03-21T17:31:06.068Z,95355
2015-03-21T17:31:24.583Z,95347
2015-03-21T17:31:42.974Z,95350
2015-03-21T17:32:01.724Z,95356
2015-03-21T17:32:20.149Z,95356
2015-03-21T17:32:38.727Z,95350
2015-03-21T17:32:57.399Z,95350
2015-03-21T17:33:15.978Z,95350
2015-03-21T17:33:34.353Z,95364
2015-03-21T17:33:53.087Z,95359
2015-03-21T17:34:12.106Z,95364
2015-03-21T17:34:30.637Z,95358
2015-03-21T17:34:49.325Z,95353
2015-03-21T17:35:07.843Z,95367
2015-03-21T17:35:26.281Z,95367
2015-03-21T17:35:44.843Z,95361
2015-03-21T17:36:03.250Z,95358
2015-03-21T17:36:21.924Z,95364
2015-03-21T17:36:40.470Z,95366
2015-03-21T17:36:58.877Z,95361
2015-03-21T17:37:17.549Z,95369
2015-03-21T17:37:35.972Z,95358
2015-03-21T17:37:54.707Z,95366
2015-03-21T17:38:13.441Z,95374
2015-03-21T17:38:32.272Z,95363
2015-03-21T17:38:51.679Z,95374
2015-03-21T17:39:10.179Z,95366
2015-03-21T17:39:28.963Z,95368
2015-03-21T17:39:47.557Z,95368
2015-03-21T17:40:06.228Z,95368
2015-03-21T17:40:24.603Z,95371
2015-03-21T17:40:43.121Z,95371
2015-03-21T17:41:01.730Z,95374
2015-03-21T17:41:20.309Z,95363
2015-03-21T17:41:38.715Z,95377
2015-03-21T17:41:57.405Z,95368
2015-03-21T17:42:15.843Z,95365
2015-03-21T17:42:34.296Z,95360
2015-03-21T17:42:52.907Z,95366
2015-03-21T17:43:11.407Z,95371
2015-03-21T17:43:29.970Z,95375
2015-03-21T17:43:48.675Z,95369
2015-03-21T17:44:07.347Z,95375
2015-03-21T17:44:25.878Z,95363
2015-03-21T17:44:44.300Z,95369
2015-03-21T17:45:02.865Z,95375
2015-03-21T17:45:21.412Z,95363
2015-03-21T17:45:40.022Z,95380
2015-03-21T17:45:58.774Z,95383
2015-03-21T17:46:17.383Z,95372
2015-03-21T17:46:35.805Z,95375
2015-03-21T17:46:54.369Z,95377
2015-03-21T17:47:13.323Z,95380
2015-03-21T17:47:31.760Z,95375
2015-03-21T17:47:50.354Z,95377
2015-03-21T17:48:08.732Z,95380
2015-03-21T17:48:27.185Z,95374
2015-03-21T17:48:45.560Z,95377
2015-03-21T17:49:04.516Z,95383
2015-03-21T17:49:23.250Z,95374
2015-03-21T17:49:41.969Z,95380
2015-03-21T17:50:00.346Z,95380
2015-03-21T17:50:18.331Z,95383
2015-03-21T17:50:37.002Z,95374
2015-03-21T17:50:55.581Z,95386
2015-03-21T17:51:13.973Z,95377
2015-03-21T17:51:32.395Z,95383
2015-03-21T17:51:51.145Z,95380
2015-03-21T17:52:09.914Z,95383
2015-03-21T17:52:28.586Z,95377
2015-03-21T17:52:47.101Z,95369
2015-03-21T17:53:05.711Z,95377
2015-03-21T17:53:24.401Z,95371
2015-03-21T17:53:42.885Z,95380
2015-03-21T17:54:01.417Z,95377
2015-03-21T17:54:19.823Z,95374
2015-03-21T17:54:38.419Z,95383
2015-03-21T17:54:56.841Z,95374
2015-03-21T17:55:15.309Z,95383
2015-03-21T17:55:33.811Z,95386
2015-03-21T17:55:52.327Z,95383
2015-03-21T17:56:10.952Z,95391
2015-03-21T17:56:29.436Z,95380
2015-03-21T17:56:47.798Z,95389
2015-03-21T17:57:06.376Z,95383
2015-03-21T17:57:25.126Z,95384
2015-03-21T17:57:43.614Z,95381
2015-03-21T17:58:02.239Z,95384
2015-03-21T17:58:20.802Z,95375
2015-03-21T17:58:39.381Z,95387
2015-03-21T17:58:57.818Z,95390
2015-03-21T17:59:16.303Z,95393
2015-03-21T17:59:34.662Z,95387
2015-03-21T17:59:53.040Z,95381
2015-03-21T18:00:11.478Z,95387
2015-03-21T18:00:29.946Z,95396
2015-03-21T18:00:48.399Z,95390
2015-03-21T18:01:07.011Z,95393
2015-03-21T18:01:25.651Z,95387
2015-03-21T18:01:44.026Z,95388
2015-03-21T18:02:02.404Z,95393
2015-03-21T18:02:20.795Z,95388
2015-03-21T18:02:39.233Z,95397
2015-03-21T18:02:57.686Z,95385
2015-03-21T18:03:16.111Z,95391
2015-03-21T18:03:34.486Z,95394
2015-03-21T18:03:53.079Z,95399
2015-03-21T18:04:11.503Z,95391
2015-03-21T18:04:30.128Z,95394
2015-03-21T18:04:48.659Z,95394
2015-03-21T18:05:07.113Z,95391
2015-03-21T18:05:25.522Z,95391
2015-03-21T18:05:43.975Z,95399
2015-03-21T18:06:02.537Z,95385
2015-03-21T18:06:21.039Z,95391
2015-03-21T18:06:39.602Z,95386
2015-03-21T18:06:58.008Z,95397
2015-03-21T18:07:16.383Z,95400
2015-03-21T18:07:34.824Z,95394
2015-03-21T18:07:53.339Z,95391
2015-03-21T18:08:11.871Z,95394
2015-03-21T18:08:30.374Z,95402
2015-03-21T18:08:48.952Z,95402
2015-03-21T18:09:07.342Z,95402
2015-03-21T18:09:25.733Z,95402
2015-03-21T18:09:44.188Z,95397
2015-03-21T18:10:02.719Z,95408
2015-03-21T18:10:21.297Z,95402
2015-03-21T18:10:39.940Z,95402
2015-03-21T18:10:58.518Z,95400
2015-03-21T18:11:16.924Z,95406
2015-03-21T18:11:35.471Z,95411
2015-03-21T18:11:53.880Z,95403
2015-03-21T18:12:12.505Z,95400
2015-03-21T18:12:31.114Z,95403
2015-03-21T18:12:49.633Z,95397
2015-03-21T18:13:08.117Z,95409
2015-03-21T18:13:26.742Z,95415
2015-03-21T18:13:45.258Z,95409
2015-03-21T18:14:03.697Z,95412
2015-03-21T18:14:22.119Z,95401
2015-03-21T18:14:40.885Z,95405
2015-03-21T18:14:59.466Z,95402
2015-03-21T18:15:17.934Z,95408
2015-03-21T18:15:36.372Z,95408
2015-03-21T18:15:55.075Z,95403
2015-03-21T18:16:13.531Z,95400
2015-03-21T18:16:31.906Z,95403
2015-03-21T18:16:50.344Z,95409
2015-03-21T18:17:08.830Z,95409
2015-03-21T18:17:27.814Z,95406
2015-03-21T18:17:46.205Z,95412
2015-03-21T18:18:04.926Z,95406
2015-03-21T18:18:23.566Z,95420
2015-03-21T18:18:42.129Z,95418
2015-03-21T18:19:01.082Z,95409
2015-03-21T18:19:18.944Z,95418
2015-03-21T18:19:37.585Z,95418
2015-03-21T18:19:56.023Z,95413
2015-03-21T18:20:14.462Z,95413
2015-03-21T18:20:32.900Z,95420
2015-03-21T18:20:51.368Z,95420
2015-03-21T18:21:09.931Z,95432
2015-03-21T18:21:28.559Z,95424
2015-03-21T18:21:46.934Z,95424
2015-03-21T18:22:05.340Z,95430
2015-03-21T18:22:23.967Z,95422
2015-03-21T18:22:42.498Z,95422
2015-03-21T18:23:01.076Z,95425
2015-03-21T18:23:19.532Z,95425
2015-03-21T18:23:37.969Z,95423
2015-03-21T18:23:56.375Z,95423
2015-03-21T18:24:14.860Z,95423
2015-03-21T18:24:33.269Z,95426
2015-03-21T18:24:51.675Z,95429
2015-03-21T18:25:10.050Z,95426
2015-03-21T18:25:28.521Z,95429
2015-03-21T18:25:47.083Z,95421
2015-03-21T18:26:05.646Z,95429
2015-03-21T18:26:24.414Z,95421
2015-03-21T18:26:42.789Z,95427
2015-03-21T18:27:01.304Z,95419
2015-03-21T18:27:19.695Z,95427
2015-03-21T18:27:38.308Z,95435
2015-03-21T18:27:56.683Z,95433
2015-03-21T18:28:15.136Z,95438
2015-03-21T18:28:33.543Z,95430
2015-03-21T18:28:52.106Z,95433
2015-03-21T18:29:10.528Z,95422
2015-03-21T18:29:29.169Z,95428
2015-03-21T18:29:47.609Z,95425
2015-03-21T18:30:06.000Z,95428
2015-03-21T18:30:24.422Z,95428
2015-03-21T18:30:43.015Z,95431
2015-03-21T18:31:01.767Z,95429
2015-03-21T18:31:20.314Z,95432
2015-03-21T18:31:38.955Z,95426
2015-03-21T18:31:57.348Z,95436
2015-03-21T18:32:15.927Z,95434
2015-03-21T18:32:34.302Z,95436
2015-03-21T18:32:52.895Z,95439
2015-03-21T18:33:11.694Z,95431
2015-03-21T18:33:30.335Z,95434
2015-03-21T18:33:48.960Z,95439
2015-03-21T18:34:07.400Z,95431
2015-03-21T18:34:25.853Z,95435
2015-03-21T18:34:44.213Z,95441
2015-03-21T18:35:02.697Z,95435
2015-03-21T18:35:21.278Z,95438
2015-03-21T18:35:39.653Z,95446
2015-03-21T18:35:58.075Z,95435
2015-03-21T18:36:16.499Z,95435
2015-03-21T18:36:35.015Z,95437
2015-03-21T18:36:53.530Z,95433
2015-03-21T18:37:11.921Z,95440
2015-03-21T18:37:30.580Z,95440
2015-03-21T18:37:49.158Z,95437
2015-03-21T18:38:07.518Z,95437
2015-03-21T18:38:25.927Z,95440
2015-03-21T18:38:44.380Z,95432
2015-03-21T18:39:02.911Z,95433
2015-03-21T18:39:21.286Z,95437
2015-03-21T18:39:39.803Z,95443
2015-03-21T18:39:58.350Z,95448
2015-03-21T18:40:16.975Z,95442
2015-03-21T18:40:35.525Z,95445
2015-03-21T18:40:54.025Z,95439
2015-03-21T18:41:12.462Z,95451
2015-03-21T18:41:30.853Z,95451
2015-03-21T18:41:49.699Z,95442
2015-03-21T18:42:08.730Z,95448
2015-03-21T18:42:27.120Z,95448
2015-03-21T18:42:45.483Z,95440
2015-03-21T18:43:03.889Z,95460
2015-03-21T18:43:22.280Z,95448
2015-03-21T18:43:40.655Z,95454
2015-03-21T18:43:59.250Z,95454
2015-03-21T18:44:17.625Z,95460
2015-03-21T18:44:36.047Z,95460
2015-03-21T18:44:54.488Z,95454
2015-03-21T18:45:12.878Z,95454
2015-03-21T18:45:31.269Z,95460
2015-03-21T18:45:49.675Z,95465
2015-03-21T18:46:08.052Z,95449
2015-03-21T18:46:26.537Z,95454
2015-03-21T18:46:45.084Z,95463
2015-03-21T18:47:03.477Z,95454
2015-03-21T18:47:21.868Z,95452
2015-03-21T18:47:40.305Z,95454
2015-03-21T18:47:58.868Z,95463
2015-03-21T18:48:17.292Z,95463
2015-03-21T18:48:35.682Z,95458
2015-03-21T18:48:54.104Z,95463
2015-03-21T18:49:12.607Z,95446
2015-03-21T18:49:30.982Z,95463
2015-03-21T18:49:49.451Z,95468
2015-03-21T18:50:07.810Z,95460
2015-03-21T18:50:26.187Z,95454
2015-03-21T18:50:44.703Z,95454
2015-03-21T18:51:03.187Z,95465
2015-03-21T18:51:21.581Z,95465
2015-03-21T18:51:40.159Z,95465
2015-03-21T18:51:58.784Z,95468
2015-03-21T18:52:17.474Z,95473
2015-03-21T18:52:35.833Z,95465
2015-03-21T18:52:54.302Z,95470
2015-03-21T18:53:12.770Z,95470
2015-03-21T18:53:31.367Z,95463
2015-03-21T18:53:49.945Z,95463
2015-03-21T18:54:08.367Z,95473
2015-03-21T18:54:27.119Z,95478
2015-03-21T18:54:45.697Z,95470
2015-03-21T18:55:04.072Z,95467
2015-03-21T18:55:22.775Z,95467
2015-03-21T18:55:41.138Z,95467
2015-03-21T18:55:59.763Z,95467
2015-03-21T18:56:18.341Z,95473
2015-03-21T18:56:36.732Z,95479
2015-03-21T18:56:55.202Z,95470
2015-03-21T18:57:13.577Z,95476
2015-03-21T18:57:32.015Z,95479
2015-03-21T18:57:50.487Z,95474
2015-03-21T18:58:09.096Z,95474
2015-03-21T18:58:27.877Z,95477
2015-03-21T18:58:46.268Z,95469
2015-03-21T18:59:04.864Z,95474
2015-03-21T18:59:23.379Z,95466
2015-03-21T18:59:41.942Z,95477
2015-03-21T19:00:00.398Z,95477
2015-03-21T19:00:19.117Z,95472
2015-03-21T19:00:37.492Z,95469
2015-03-21T19:00:55.992Z,95466
2015-03-21T19:01:14.448Z,95472
2015-03-21T19:01:32.995Z,95477
2015-03-21T19:01:51.416Z,95463
2015-03-21T19:02:09.840Z,95469
2015-03-21T19:02:28.215Z,95480
2015-03-21T19:02:46.622Z,95480
2015-03-21T19:03:04.997Z,95474
2015-03-21T19:03:23.436Z,95471
2015-03-21T19:03:42.030Z,95477
2015-03-21T19:04:00.655Z,95468
2015-03-21T19:04:19.204Z,95476
2015-03-21T19:04:37.594Z,95474
2015-03-21T19:04:56.188Z,95474
2015-03-21T19:05:14.550Z,95476
2015-03-21T19:05:33.050Z,95479
2015-03-21T19:05:51.425Z,95482
2015-03-21T19:06:09.785Z,95485
2015-03-21T19:06:28.178Z,95476
2015-03-21T19:06:46.694Z,95476
2015-03-21T19:07:05.069Z,95484
2015-03-21T19:07:23.539Z,95485
2015-03-21T19:07:41.929Z,95473
2015-03-21T19:08:00.383Z,95479
2015-03-21T19:08:18.932Z,95479
2015-03-21T19:08:37.307Z,95485
2015-03-21T19:08:55.682Z,95476
2015-03-21T19:09:14.184Z,95470
2015-03-21T19:09:32.669Z,95473
2015-03-21T19:09:51.044Z,95482
2015-03-21T19:10:09.419Z,95476
2015-03-21T19:10:27.811Z,95479
2015-03-21T19:10:46.218Z,95479
2015-03-21T19:11:04.624Z,95485
2015-03-21T19:11:23.032Z,95487
2015-03-21T19:11:41.423Z,95476
2015-03-21T19:12:00.001Z,95479
2015-03-21T19:12:18.473Z,95482
2015-03-21T19:12:36.863Z,95479
2015-03-21T19:12:55.426Z,95482
2015-03-21T19:13:13.801Z,95485
2015-03-21T19:13:32.460Z,95479
2015-03-21T19:13:50.835Z,95490
2015-03-21T19:14:09.288Z,95479
2015-03-21T19:14:27.711Z,95482
2015-03-21T19:14:46.289Z,95485
2015-03-21T19:15:04.867Z,95482
2015-03-21T19:15:23.589Z,95479
2015-03-21T19:15:42.183Z,95488
2015-03-21T19:16:00.823Z,95485
2015-03-21T19:16:19.263Z,95488
2015-03-21T19:16:37.935Z,95474
2015-03-21T19:16:56.435Z,95479
2015-03-21T19:17:17.997Z,95493
2015-03-21T19:17:36.594Z,95474
2015-03-21T19:17:55.063Z,95476
2015-03-21T19:18:13.672Z,95479
2015-03-21T19:18:32.363Z,95479
2015-03-21T19:18:50.941Z,95482
2015-03-21T19:19:09.660Z,95491
2015-03-21T19:19:28.583Z,95485
2015-03-21T19:19:47.130Z,95485
2015-03-21T19:20:06.099Z,95482
2015-03-21T19:20:24.882Z,95479
2015-03-21T19:20:43.804Z,95479
2015-03-21T19:21:02.570Z,95477
2015-03-21T19:21:21.632Z,95482
2015-03-21T19:21:40.417Z,95482
2015-03-21T19:21:59.385Z,95477
2015-03-21T19:22:17.838Z,95496
2015-03-21T19:22:36.199Z,95482
2015-03-21T19:22:54.652Z,95482
2015-03-21T19:23:13.214Z,95485
2015-03-21T19:23:32.249Z,95485
2015-03-21T19:23:50.624Z,95485
2015-03-21T19:24:09.296Z,95494
2015-03-21T19:24:27.813Z,95482
2015-03-21T19:24:46.188Z,95491
2015-03-21T19:25:04.751Z,95494
2015-03-21T19:25:23.157Z,95482
2015-03-21T19:25:41.706Z,95494
2015-03-21T19:26:00.206Z,95494
2015-03-21T19:26:18.815Z,95485
2015-03-21T19:26:37.537Z,95485
2015-03-21T19:26:55.959Z,95488
2015-03-21T19:27:14.334Z,95494
2015-03-21T19:27:32.945Z,95488
2015-03-21T19:27:51.664Z,95488
2015-03-21T19:28:10.226Z,95485
2015-03-21T19:28:29.101Z,95485
2015-03-21T19:28:47.511Z,95485
2015-03-21T19:29:06.354Z,95491
2015-03-21T19:29:24.823Z,95494
2015-03-21T19:29:43.606Z,95488
2015-03-21T19:30:02.356Z,95491
2015-03-21T19:30:20.856Z,95485
2015-03-21T19:30:39.390Z,95488
2015-03-21T19:30:57.968Z,95485
2015-03-21T19:31:16.905Z,95491
2015-03-21T19:31:35.345Z,95488
2015-03-21T19:31:54.189Z,95485
2015-03-21T19:32:12.673Z,95488
2015-03-21T19:32:31.360Z,95491
2015-03-21T19:32:49.832Z,95491
2015-03-21T19:33:08.207Z,95491
2015-03-21T19:33:26.645Z,95488
2015-03-21T19:33:45.195Z,95488
2015-03-21T19:34:03.663Z,95488
2015-03-21T19:34:22.116Z,95485
2015-03-21T19:34:40.742Z,95480
2015-03-21T19:34:59.508Z,95488
2015-03-21T19:35:18.352Z,95488
2015-03-21T19:35:36.946Z,95488
2015-03-21T19:35:55.511Z,95488
2015-03-21T19:36:14.355Z,95497
2015-03-21T19:36:33.167Z,95488
2015-03-21T19:36:51.560Z,95497
2015-03-21T19:37:10.154Z,95497
2015-03-21T19:37:28.763Z,95488
2015-03-21T19:37:47.454Z,95488
2015-03-21T19:38:05.938Z,95494
2015-03-21T19:38:24.719Z,95494
2015-03-21T19:38:43.143Z,95491
2015-03-21T19:39:01.534Z,95494
2015-03-21T19:39:20.065Z,95488
2015-03-21T19:39:38.549Z,95494
2015-03-21T19:39:57.067Z,95499
2015-03-21T19:40:15.614Z,95494
2015-03-21T19:40:34.536Z,95497
2015-03-21T19:40:53.164Z,95491
2015-03-21T19:41:11.867Z,95494
2015-03-21T19:41:30.414Z,95491
2015-03-21T19:41:49.134Z,95491
2015-03-21T19:42:07.791Z,95497
2015-03-21T19:42:26.322Z,95497
2015-03-21T19:42:44.744Z,95497
2015-03-21T19:43:03.372Z,95500
2015-03-21T19:43:22.028Z,95497
2015-03-21T19:43:40.887Z,95500
2015-03-21T19:43:59.499Z,95497